Terminal Aerodrome Forecast
Issued by NWS

Home | Current Version | Previous Version | Text Only | Print | Product List | Glossary On
Versions: 1 2 3 4 5 6 7 8 9 10 11 12
352
FTUS46 KSTO 132320
TAFRBL
TAF
KRBL 132320Z 1400/1424 35009KT P6SM SCT250
     FM140300 34007KT P6SM SCT120 BKN200
     FM141800 36010KT P6SM SCT250
     FM142100 36012G20KT P6SM FEW250=

USA.gov is the U.S. government's official web portal to all federal, state and local government web resources and services.